createdAt,value
2018-12-04T00:00:08.697Z,94987.45
2018-12-04T00:02:36.954Z,94988.17
2018-12-04T00:05:05.461Z,94953.98
2018-12-04T00:07:33.914Z,94977.73
2018-12-04T00:10:05.440Z,94984.38
2018-12-04T00:12:36.791Z,94979.05
2018-12-04T00:15:05.562Z,94979.81
2018-12-04T00:17:34.553Z,94979.05
2018-12-04T00:20:03.612Z,94980.73
2018-12-04T00:22:31.676Z,94978.83
2018-12-04T00:25:00.649Z,94976.40
2018-12-04T00:27:28.960Z,94975.24
2018-12-04T00:29:56.784Z,94975.18
2018-12-04T00:32:24.743Z,94976.73
2018-12-04T00:34:52.808Z,94972.25
2018-12-04T00:37:23.789Z,94970.36
2018-12-04T00:39:51.966Z,94974.92
2018-12-04T00:42:20.003Z,94969.58
2018-12-04T00:44:49.117Z,94969.95
2018-12-04T00:47:19.220Z,94963.87
2018-12-04T00:49:47.930Z,94969.00
2018-12-04T00:52:16.940Z,94974.33
2018-12-04T00:54:45.736Z,94962.73
2018-12-04T00:57:14.298Z,94959.50
2018-12-04T01:02:20.923Z,94949.20
2018-12-04T01:04:48.979Z,94948.45
2018-12-04T01:07:17.032Z,94943.13
2018-12-04T01:09:45.023Z,94808.14
2018-12-04T01:12:13.150Z,94928.84
2018-12-04T01:14:41.152Z,94928.85
2018-12-04T01:17:09.758Z,94939.11
2018-12-04T01:19:37.804Z,94920.02
2018-12-04T01:22:06.872Z,94913.22
2018-12-04T01:24:36.007Z,94918.14
2018-12-04T01:27:04.069Z,94915.49
2018-12-04T01:29:32.221Z,94911.53
2018-12-04T01:32:00.183Z,94907.34
2018-12-04T01:34:28.236Z,94907.73
2018-12-04T01:36:56.332Z,94910.55
2018-12-04T01:39:25.146Z,94905.64
2018-12-04T01:41:55.564Z,94902.01
2018-12-04T01:44:23.628Z,94900.89
2018-12-04T01:46:51.999Z,94904.31
2018-12-04T01:49:20.024Z,94896.92
2018-12-04T01:51:48.169Z,94916.45
2018-12-04T01:54:16.843Z,94911.13
2018-12-04T01:56:44.908Z,94913.78
2018-12-04T01:59:13.554Z,94902.60
2018-12-04T02:01:42.798Z,94906.21
2018-12-04T02:04:11.920Z,94904.66
2018-12-04T02:06:40.049Z,94903.15
2018-12-04T02:09:09.016Z,94899.74
2018-12-04T02:11:37.175Z,94903.34
2018-12-04T02:14:06.076Z,94900.86
2018-12-04T02:16:34.904Z,94902.38
2018-12-04T02:19:03.004Z,94904.30
2018-12-04T02:21:31.137Z,94905.78
2018-12-04T02:23:59.701Z,94911.14
2018-12-04T02:26:34.335Z,94911.89
2018-12-04T02:29:02.526Z,94907.71
2018-12-04T02:31:30.508Z,94899.94
2018-12-04T02:33:58.692Z,94902.41
2018-12-04T02:36:26.787Z,94903.72
2018-12-04T02:38:54.809Z,94908.47
2018-12-04T02:41:23.755Z,94905.22
2018-12-04T02:43:53.957Z,94905.79
2018-12-04T02:46:22.924Z,94903.35
2018-12-04T02:48:51.964Z,94895.74
2018-12-04T02:51:21.006Z,94901.26
2018-12-04T02:53:49.719Z,94903.56
2018-12-04T02:56:18.661Z,94896.91
2018-12-04T02:58:46.857Z,94892.93
2018-12-04T03:01:15.075Z,94895.00
2018-12-04T03:03:43.591Z,94894.63
2018-12-04T03:06:12.442Z,94899.94
2018-12-04T03:08:41.096Z,94887.80
2018-12-04T03:11:09.140Z,94891.20
2018-12-04T03:13:37.165Z,94888.73
2018-12-04T03:16:06.185Z,94893.31
2018-12-04T03:18:34.274Z,94897.45
2018-12-04T03:21:04.171Z,94892.73
2018-12-04T03:23:32.238Z,94888.73
2018-12-04T03:26:01.187Z,94886.65
2018-12-04T03:28:29.223Z,94890.24
2018-12-04T03:30:58.147Z,94895.92
2018-12-04T03:33:37.212Z,94889.10
2018-12-04T03:36:05.400Z,94888.54
2018-12-04T03:38:33.553Z,94891.94
2018-12-04T03:41:02.378Z,94886.45
2018-12-04T03:43:30.659Z,94896.91
2018-12-04T03:45:58.908Z,94882.47
2018-12-04T03:48:33.747Z,94885.88
2018-12-04T03:51:03.502Z,94894.98
2018-12-04T03:53:33.598Z,94893.84
2018-12-04T03:56:01.978Z,94892.86
2018-12-04T03:58:30.281Z,94885.29
2018-12-04T04:00:59.177Z,94885.32
2018-12-04T04:03:27.247Z,94888.38
2018-12-04T04:05:55.221Z,94893.11
2018-12-04T04:08:24.025Z,94891.78
2018-12-04T04:10:52.062Z,94886.83
2018-12-04T04:13:20.615Z,94887.61
2018-12-04T04:15:48.597Z,94891.77
2018-12-04T04:18:16.704Z,94889.89
2018-12-04T04:20:45.336Z,94889.12
2018-12-04T04:23:13.782Z,94887.03
2018-12-04T04:25:41.787Z,94880.19
2018-12-04T04:28:09.749Z,94887.20
2018-12-04T04:30:38.707Z,94882.04
2018-12-04T04:33:06.648Z,94894.37
2018-12-04T04:35:35.977Z,94891.33
2018-12-04T04:38:04.091Z,94894.42
2018-12-04T04:40:32.054Z,94884.91
2018-12-04T04:43:00.390Z,94893.67
2018-12-04T04:45:28.886Z,94899.33
2018-12-04T04:47:57.012Z,94894.59
2018-12-04T04:50:25.175Z,94892.50
2018-12-04T04:52:55.174Z,94895.23
2018-12-04T04:55:23.342Z,94895.45
2018-12-04T04:57:51.870Z,94890.75
2018-12-04T05:00:20.021Z,94889.05
2018-12-04T05:02:48.417Z,94883.34
2018-12-04T05:05:17.252Z,94888.58
2018-12-04T05:07:45.365Z,94887.88
2018-12-04T05:10:13.316Z,94886.55
2018-12-04T05:12:41.229Z,94885.39
2018-12-04T05:15:09.257Z,94877.85
2018-12-04T05:17:37.593Z,94876.95
2018-12-04T05:20:07.500Z,94869.55
2018-12-04T05:22:35.745Z,94868.44
2018-12-04T05:25:05.613Z,94870.52
2018-12-04T05:27:33.892Z,94869.52
2018-12-04T05:30:02.651Z,94864.44
2018-12-04T05:32:31.192Z,94874.66
2018-12-04T05:35:00.501Z,94870.45
2018-12-04T05:37:29.061Z,94868.17
2018-12-04T05:39:57.160Z,94872.99
2018-12-04T05:42:25.665Z,94869.70
2018-12-04T05:44:55.393Z,94872.34
2018-12-04T05:47:24.680Z,94877.44
2018-12-04T05:49:52.783Z,94868.97
2018-12-04T05:52:21.964Z,94880.13
2018-12-04T05:54:50.278Z,94875.75
2018-12-04T05:57:18.494Z,94883.17
2018-12-04T05:59:46.556Z,94879.09
2018-12-04T06:02:14.905Z,94882.15
2018-12-04T06:04:43.053Z,94878.70
2018-12-04T06:07:11.104Z,94883.73
2018-12-04T06:09:40.226Z,94876.45
2018-12-04T06:12:08.167Z,94890.23
2018-12-04T06:14:36.378Z,94886.45
2018-12-04T06:17:04.513Z,94894.80
2018-12-04T06:19:32.628Z,94895.27
2018-12-04T06:22:01.561Z,94893.63
2018-12-04T06:24:29.756Z,94896.85
2018-12-04T06:26:57.743Z,94900.20
2018-12-04T06:29:25.880Z,94905.77
2018-12-04T06:31:54.323Z,94909.73
2018-12-04T06:34:22.303Z,94907.46
2018-12-04T06:36:50.431Z,94906.31
2018-12-04T06:39:18.452Z,94913.29
2018-12-04T06:41:46.450Z,94905.73
2018-12-04T06:44:15.457Z,94905.35
2018-12-04T06:46:44.613Z,94909.16
2018-12-04T06:49:12.853Z,94913.62
2018-12-04T06:51:40.728Z,94912.48
2018-12-04T06:54:09.657Z,94916.87
2018-12-04T06:56:37.926Z,94908.30
2018-12-04T06:59:06.186Z,94913.39
2018-12-04T07:01:34.453Z,94912.06
2018-12-04T07:04:05.613Z,94916.29
2018-12-04T07:06:33.688Z,94907.95
2018-12-04T07:09:03.477Z,94912.67
2018-12-04T07:11:31.605Z,94925.75
2018-12-04T07:13:59.618Z,94918.59
2018-12-04T07:16:27.727Z,94916.33
2018-12-04T07:18:57.064Z,94912.55
2018-12-04T07:21:26.973Z,94916.31
2018-12-04T07:23:56.103Z,94907.33
2018-12-04T07:26:26.625Z,94909.99
2018-12-04T07:28:55.070Z,94913.60
2018-12-04T07:31:23.898Z,94911.09
2018-12-04T07:33:52.103Z,94901.03
2018-12-04T07:36:20.681Z,94918.45
2018-12-04T07:38:48.603Z,94916.73
2018-12-04T07:41:18.019Z,94918.84
2018-12-04T07:43:46.300Z,94923.45
2018-12-04T07:46:14.603Z,94914.52
2018-12-04T07:48:42.734Z,94917.56
2018-12-04T07:51:11.218Z,94919.66
2018-12-04T07:57:28.128Z,94913.75
2018-12-04T07:59:56.353Z,94916.36
2018-12-04T08:08:05.426Z,94920.28
2018-12-04T08:11:03.179Z,94921.19
2018-12-04T08:13:34.505Z,94919.34
2018-12-04T08:16:23.546Z,94921.22
2018-12-04T08:21:50.921Z,94922.45
2018-12-04T08:24:23.330Z,94923.52
2018-12-04T08:30:02.501Z,94919.14
2018-12-04T08:35:37.473Z,94916.56
2018-12-04T08:38:05.945Z,94919.95
2018-12-04T08:40:34.385Z,94916.48
2018-12-04T08:43:04.772Z,94917.55
2018-12-04T08:45:32.986Z,94913.39
2018-12-04T08:48:01.757Z,94911.72
2018-12-04T08:50:31.368Z,94911.57
2018-12-04T08:53:04.341Z,94907.63
2018-12-04T08:55:35.826Z,94904.44
2018-12-04T08:58:05.408Z,94896.13
2018-12-04T09:00:33.669Z,94824.56
2018-12-04T09:03:01.865Z,94905.69
2018-12-04T09:05:29.825Z,94898.78
2018-12-04T09:07:58.227Z,94901.37
2018-12-04T09:11:09.065Z,94893.91
2018-12-04T09:13:38.100Z,94903.02
2018-12-04T09:16:06.597Z,94886.15
2018-12-04T09:18:35.228Z,94887.04
2018-12-04T09:21:04.216Z,94882.62
2018-12-04T09:23:36.172Z,94892.84
2018-12-04T09:26:10.149Z,94650.79
2018-12-04T09:28:43.389Z,94887.58
2018-12-04T09:31:11.507Z,94879.39
2018-12-04T09:33:39.668Z,94871.49
2018-12-04T09:36:09.079Z,94874.69
2018-12-04T09:38:37.156Z,94869.91
2018-12-04T09:41:05.199Z,94863.32
2018-12-04T09:43:34.086Z,94868.82
2018-12-04T09:46:02.209Z,94871.33
2018-12-04T09:48:30.281Z,94851.22
2018-12-04T09:50:58.518Z,94851.53
2018-12-04T09:53:27.586Z,94857.19
2018-12-04T09:55:55.641Z,94845.87
2018-12-04T09:58:24.261Z,94849.03
2018-12-04T10:00:52.561Z,94849.52
2018-12-04T10:03:20.642Z,94849.97
2018-12-04T10:05:49.320Z,94846.16
2018-12-04T10:08:21.195Z,94842.16
2018-12-04T10:10:52.639Z,94831.55
2018-12-04T10:13:20.734Z,94834.71
2018-12-04T10:15:48.715Z,94831.69
2018-12-04T10:18:17.372Z,94818.44
2018-12-04T10:20:45.428Z,94812.45
2018-12-04T10:23:13.916Z,94818.23
2018-12-04T10:28:50.894Z,94813.36
2018-12-04T10:31:18.993Z,94810.37
2018-12-04T10:33:47.160Z,94812.38
2018-12-04T10:36:16.200Z,94805.86
2018-12-04T10:38:45.418Z,94799.09
2018-12-04T10:41:39.629Z,94801.36
2018-12-04T10:44:07.745Z,94805.98
2018-12-04T10:46:35.955Z,94789.58
2018-12-04T10:49:03.937Z,94797.55
2018-12-04T10:51:32.040Z,94799.05
2018-12-04T10:54:00.315Z,94800.16
2018-12-04T10:56:32.067Z,94791.52
2018-12-04T10:59:00.944Z,94643.16
2018-12-04T11:01:34.667Z,94785.16
2018-12-04T11:04:06.838Z,94791.47
2018-12-04T11:06:35.751Z,94784.58
2018-12-04T11:09:09.032Z,94786.73
2018-12-04T11:11:44.493Z,94731.58
2018-12-04T11:14:13.128Z,94787.06
2018-12-04T11:16:41.227Z,94788.34
2018-12-04T11:19:10.829Z,94791.31
2018-12-04T11:21:38.879Z,94786.78
2018-12-04T11:24:09.097Z,94795.84
2018-12-04T11:26:38.081Z,94790.53
2018-12-04T11:29:07.034Z,94785.34
2018-12-04T11:31:42.669Z,94791.86
2018-12-04T11:34:10.769Z,94787.85
2018-12-04T11:36:39.315Z,94788.11
2018-12-04T11:39:07.683Z,94781.63
2018-12-04T11:41:35.699Z,94781.41
2018-12-04T11:44:04.969Z,94779.70
2018-12-04T11:46:32.870Z,94777.97
2018-12-04T11:49:00.948Z,94775.39
2018-12-04T11:51:28.924Z,94779.28
2018-12-04T11:53:56.924Z,94786.49
2018-12-04T11:56:24.872Z,94786.73
2018-12-04T11:59:10.443Z,94776.84
2018-12-04T12:01:38.783Z,94780.24
2018-12-04T12:04:08.452Z,94775.74
2018-12-04T12:06:42.964Z,94767.69
2018-12-04T12:09:11.361Z,94765.45
2018-12-04T12:11:42.149Z,94765.85
2018-12-04T12:14:20.286Z,94762.30
2018-12-04T12:16:48.859Z,94763.19
2018-12-04T12:19:17.126Z,94757.67
2018-12-04T12:21:45.047Z,94762.57
2018-12-04T12:24:13.847Z,94766.10
2018-12-04T12:27:17.102Z,94770.45
2018-12-04T12:29:45.905Z,94778.83
2018-12-04T12:32:14.137Z,94773.77
2018-12-04T12:34:42.277Z,94771.78
2018-12-04T12:37:10.472Z,94767.66
2018-12-04T12:39:40.048Z,94759.03
2018-12-04T12:42:09.175Z,94770.45
2018-12-04T12:44:37.137Z,94767.48
2018-12-04T12:47:05.145Z,94772.22
2018-12-04T12:49:34.002Z,94778.02
2018-12-04T12:52:03.001Z,94772.87
2018-12-04T12:54:31.093Z,94771.45
2018-12-04T12:56:59.288Z,94777.09
2018-12-04T12:59:27.392Z,94781.95
2018-12-04T13:01:55.362Z,94775.14
2018-12-04T13:04:27.252Z,94777.53
2018-12-04T13:06:55.372Z,94773.20
2018-12-04T13:09:23.598Z,94781.22
2018-12-04T13:11:52.528Z,94786.89
2018-12-04T13:14:20.577Z,94786.33
2018-12-04T13:16:49.519Z,94782.20
2018-12-04T13:19:17.872Z,94783.61
2018-12-04T13:21:45.971Z,94785.23
2018-12-04T13:24:14.568Z,94785.80
2018-12-04T13:26:42.674Z,94781.03
2018-12-04T13:29:10.943Z,94780.11
2018-12-04T13:31:39.485Z,94772.32
2018-12-04T13:34:07.471Z,94776.50
2018-12-04T13:36:35.537Z,94753.04
2018-12-04T13:39:06.088Z,94782.73
2018-12-04T13:41:34.623Z,94780.70
2018-12-04T13:47:19.081Z,94789.82
2018-12-04T13:49:47.093Z,94783.43
2018-12-04T13:52:15.400Z,94793.70
2018-12-04T13:54:43.538Z,94790.45
2018-12-04T13:57:11.607Z,94793.84
2018-12-04T13:59:39.657Z,94786.03
2018-12-04T14:02:10.834Z,94787.91
2018-12-04T14:04:38.886Z,94790.25
2018-12-04T14:07:07.068Z,94789.35
2018-12-04T14:09:36.835Z,94788.47
2018-12-04T14:12:04.853Z,94785.07
2018-12-04T14:14:36.036Z,94781.63
2018-12-04T14:17:07.629Z,94781.02
2018-12-04T14:19:39.789Z,94777.66
2018-12-04T14:22:08.246Z,94786.89
2018-12-04T14:24:36.518Z,94791.72
2018-12-04T14:27:06.180Z,94786.97
2018-12-04T14:29:36.217Z,94788.77
2018-12-04T14:32:04.783Z,94791.62
2018-12-04T14:34:32.870Z,94791.52
2018-12-04T14:37:01.875Z,94797.59
2018-12-04T14:39:31.128Z,94796.09
2018-12-04T14:41:59.622Z,94800.30
2018-12-04T14:44:27.971Z,94785.27
2018-12-04T14:46:57.273Z,94803.37
2018-12-04T14:49:25.593Z,94805.86
2018-12-04T14:51:54.720Z,94795.91
2018-12-04T14:54:23.933Z,94720.54
2018-12-04T14:56:52.136Z,94788.97
2018-12-04T14:59:20.438Z,94792.66
2018-12-04T15:04:26.260Z,94801.94
2018-12-04T15:06:56.723Z,94794.28
2018-12-04T15:09:24.958Z,94803.40
2018-12-04T15:11:53.973Z,94794.98
2018-12-04T15:14:22.194Z,94796.02
2018-12-04T15:16:54.955Z,94806.96
2018-12-04T15:19:20.829Z,94802.30
2018-12-04T15:21:49.817Z,94809.52
2018-12-04T15:24:21.447Z,94807.09
2018-12-04T15:30:16.263Z,94801.72
2018-12-04T15:32:47.502Z,94809.91
2018-12-04T15:35:15.544Z,94806.75
2018-12-04T15:37:43.704Z,94817.70
2018-12-04T15:40:12.577Z,94823.14
2018-12-04T15:42:40.808Z,94819.47
2018-12-04T15:45:09.238Z,94823.78
2018-12-04T15:47:37.808Z,94827.75
2018-12-04T15:50:08.711Z,94821.09
2018-12-04T15:52:38.147Z,94820.41
2018-12-04T15:55:08.128Z,94823.88
2018-12-04T15:57:38.170Z,94828.61
2018-12-04T16:00:08.559Z,94834.47
2018-12-04T16:02:37.723Z,94834.59
2018-12-04T16:05:07.769Z,94833.13
2018-12-04T16:07:36.217Z,94831.72
2018-12-04T16:10:06.927Z,94838.03
2018-12-04T16:12:35.599Z,94837.38
2018-12-04T16:15:05.629Z,94828.52
2018-12-04T16:17:46.085Z,94822.23
2018-12-04T16:20:15.303Z,94824.88
2018-12-04T16:22:44.190Z,94820.53
2018-12-04T16:25:12.383Z,94822.31
2018-12-04T16:27:42.414Z,94828.08
2018-12-04T16:30:10.656Z,94837.67
2018-12-04T16:32:39.733Z,94828.52
2018-12-04T16:35:08.711Z,94833.02
2018-12-04T16:37:37.455Z,94833.95
2018-12-04T16:40:06.780Z,94833.87
2018-12-04T16:42:35.300Z,94833.13
2018-12-04T16:45:03.729Z,94850.05
2018-12-04T16:47:34.291Z,94841.73
2018-12-04T16:50:03.319Z,94836.95
2018-12-04T16:52:34.004Z,94842.27
2018-12-04T16:55:03.475Z,94845.51
2018-12-04T16:57:36.425Z,94836.31
2018-12-04T17:00:06.680Z,94841.73
2018-12-04T17:02:35.040Z,94836.19
2018-12-04T17:05:03.478Z,94836.70
2018-12-04T17:07:31.864Z,94834.47
2018-12-04T17:10:00.069Z,94834.47
2018-12-04T17:12:29.660Z,94849.42
2018-12-04T17:14:59.021Z,94841.69
2018-12-04T17:17:27.097Z,94842.63
2018-12-04T17:19:57.972Z,94837.00
2018-12-04T17:22:26.096Z,94838.12
2018-12-04T17:24:54.187Z,94846.61
2018-12-04T17:27:22.287Z,94848.01
2018-12-04T17:29:51.980Z,94852.38
2018-12-04T17:32:20.137Z,94859.73
2018-12-04T17:34:48.390Z,94858.59
2018-12-04T17:37:19.803Z,94856.39
2018-12-04T17:39:55.072Z,94861.97
2018-12-04T17:42:23.514Z,94855.12
2018-12-04T17:44:54.070Z,94856.16
2018-12-04T17:47:23.396Z,94863.08
2018-12-04T17:49:51.797Z,94867.03
2018-12-04T17:52:21.520Z,94866.75
2018-12-04T17:54:49.713Z,94872.95
2018-12-04T17:57:18.733Z,94875.75
2018-12-04T17:59:47.013Z,94889.89
2018-12-04T18:05:04.357Z,94884.71
2018-12-04T18:07:55.430Z,94895.02
2018-12-04T18:10:27.976Z,94897.51
2018-12-04T18:13:03.969Z,94891.70
2018-12-04T18:15:37.475Z,94893.59
2018-12-04T18:18:07.029Z,94900.38
2018-12-04T18:20:35.871Z,94912.78
2018-12-04T18:23:12.867Z,94898.81
2018-12-04T18:25:44.342Z,94902.02
2018-12-04T18:28:13.586Z,94908.17
2018-12-04T18:30:41.921Z,94908.17
2018-12-04T18:33:10.246Z,94910.23
2018-12-04T18:35:42.607Z,94916.77
2018-12-04T18:38:12.005Z,94920.27
2018-12-04T18:40:45.824Z,94905.73
2018-12-04T18:43:15.694Z,94910.88
2018-12-04T18:45:53.621Z,94911.98
2018-12-04T18:48:24.345Z,94907.47
2018-12-04T18:51:01.933Z,94917.59
2018-12-04T18:53:31.825Z,94910.64
2018-12-04T18:56:00.653Z,94912.34
2018-12-04T18:58:40.737Z,94918.05
2018-12-04T19:01:28.033Z,94920.66
2018-12-04T19:03:59.053Z,94921.62
2018-12-04T19:06:29.964Z,94926.75
2018-12-04T19:12:19.070Z,94921.70
2018-12-04T19:14:47.567Z,94930.33
2018-12-04T19:17:30.364Z,94929.26
2018-12-04T19:22:47.956Z,94928.32
2018-12-04T19:27:25.133Z,94892.59
2018-12-04T19:29:54.390Z,94932.33
2018-12-04T19:32:25.882Z,94942.92
2018-12-04T19:34:55.928Z,94943.70
2018-12-04T19:37:29.657Z,94944.06
2018-12-04T19:39:58.169Z,94946.34
2018-12-04T19:42:27.694Z,94950.92
2018-12-04T19:45:08.877Z,94939.09
2018-12-04T19:47:39.222Z,94945.38
2018-12-04T19:50:09.360Z,94942.63
2018-12-04T19:52:40.871Z,94944.16
2018-12-04T19:58:15.848Z,94947.01
2018-12-04T20:00:54.401Z,94946.54
2018-12-04T20:06:12.747Z,94936.74
2018-12-04T20:08:53.225Z,94943.29
2018-12-04T20:11:27.788Z,94940.35
2018-12-04T20:14:01.272Z,94944.36
2018-12-04T20:16:32.961Z,94943.09
2018-12-04T20:19:05.529Z,94949.69
2018-12-04T20:25:07.170Z,94944.37
2018-12-04T20:27:36.001Z,94948.71
2018-12-04T20:30:05.004Z,94947.64
2018-12-04T20:32:35.321Z,94946.14
2018-12-04T20:35:05.603Z,94939.11
2018-12-04T20:37:34.556Z,94953.27
2018-12-04T20:40:03.930Z,94953.02
2018-12-04T20:42:32.319Z,94957.77
2018-12-04T20:45:01.377Z,94953.13
2018-12-04T20:47:30.274Z,94957.88
2018-12-04T20:50:00.100Z,94949.69
2018-12-04T20:52:30.034Z,94722.53
2018-12-04T20:54:59.244Z,94967.12
2018-12-04T20:57:27.953Z,94960.24
2018-12-04T20:59:56.722Z,94961.34
2018-12-04T21:02:26.418Z,94959.21
2018-12-04T21:04:56.344Z,94971.20
2018-12-04T21:07:25.420Z,94969.13
2018-12-04T21:09:53.596Z,94974.47
2018-12-04T21:12:22.376Z,94971.98
2018-12-04T21:14:52.207Z,94982.31
2018-12-04T21:17:21.168Z,94984.89
2018-12-04T21:19:51.380Z,94983.84
2018-12-04T21:22:20.317Z,94981.14
2018-12-04T21:24:50.929Z,94985.95
2018-12-04T21:27:26.150Z,94980.57
2018-12-04T21:29:59.974Z,94976.86
2018-12-04T21:32:33.706Z,94988.16
2018-12-04T21:35:07.052Z,94995.28
2018-12-04T21:37:40.570Z,94987.05
2018-12-04T21:40:14.177Z,95007.55
2018-12-04T21:42:48.068Z,94997.56
2018-12-04T21:45:22.316Z,95005.78
2018-12-04T21:47:55.694Z,95006.12
2018-12-04T21:50:23.648Z,95005.45
2018-12-04T21:52:58.173Z,95010.07
2018-12-04T21:55:26.426Z,95003.41
2018-12-04T21:57:54.854Z,95009.50
2018-12-04T22:00:23.111Z,95008.39
2018-12-04T22:02:52.960Z,95002.91
2018-12-04T22:05:22.640Z,95008.41
2018-12-04T22:07:52.571Z,95010.20
2018-12-04T22:10:21.062Z,95016.00
2018-12-04T22:12:49.371Z,95020.55
2018-12-04T22:15:18.236Z,95019.78
2018-12-04T22:17:48.683Z,95025.33
2018-12-04T22:20:17.508Z,95028.17
2018-12-04T22:22:46.075Z,95014.38
2018-12-04T22:25:14.700Z,95018.05
2018-12-04T22:27:43.429Z,95022.77
2018-12-04T22:30:12.061Z,95026.87
2018-12-04T22:32:40.914Z,95030.77
2018-12-04T22:35:10.097Z,95033.29
2018-12-04T22:37:38.691Z,95031.33
2018-12-04T22:40:06.821Z,95036.22
2018-12-04T22:42:36.093Z,95029.09
2018-12-04T22:45:10.469Z,95033.88
2018-12-04T22:47:38.846Z,95030.60
2018-12-04T22:50:08.020Z,95022.14
2018-12-04T22:52:37.283Z,95025.16
2018-12-04T22:55:05.643Z,95025.34
2018-12-04T22:57:34.028Z,95022.02
2018-12-04T23:00:04.177Z,95022.59
2018-12-04T23:02:34.171Z,95021.53
2018-12-04T23:05:02.426Z,95019.25
2018-12-04T23:07:31.069Z,95021.53
2018-12-04T23:09:59.267Z,95019.73
2018-12-04T23:12:27.948Z,95026.32
2018-12-04T23:14:56.169Z,95021.77
2018-12-04T23:17:27.614Z,95027.77
2018-12-04T23:19:56.975Z,95034.31
2018-12-04T23:22:26.166Z,95030.17
2018-12-04T23:24:57.278Z,95029.97
2018-12-04T23:27:26.673Z,95030.30
2018-12-04T23:29:57.678Z,95037.97
2018-12-04T23:32:27.266Z,95042.21
2018-12-04T23:34:55.703Z,95045.52
2018-12-04T23:37:24.245Z,95036.31
2018-12-04T23:39:54.509Z,95047.92
2018-12-04T23:42:27.340Z,95047.53
2018-12-04T23:44:56.513Z,95047.77
2018-12-04T23:47:25.253Z,95049.07
2018-12-04T23:49:53.473Z,95051.55
2018-12-04T23:52:21.798Z,95051.47
2018-12-04T23:54:51.346Z,95058.30
2018-12-04T23:57:19.850Z,95061.81
2018-12-04T23:59:48.796Z,95062.74
